createdAt,value
2019-04-07T00:00:51.943Z,41.23
2019-04-07T00:03:21.350Z,37.75
2019-04-07T00:05:50.695Z,37.28
2019-04-07T00:08:20.511Z,31.52
2019-04-07T00:10:49.743Z,35.40
2019-04-07T00:13:18.944Z,31.75
2019-04-07T00:15:48.720Z,32.50
2019-04-07T00:18:18.304Z,36.88
2019-04-07T00:20:47.581Z,35.20
2019-04-07T00:23:17.613Z,43.30
2019-04-07T00:25:47.056Z,38.83
2019-04-07T00:28:16.259Z,36.68
2019-04-07T00:30:45.424Z,33.75
2019-04-07T00:33:14.592Z,35.08
2019-04-07T00:35:43.803Z,44.27
2019-04-07T00:38:13.149Z,33.53
2019-04-07T00:40:42.825Z,33.08
2019-04-07T00:43:12.131Z,38.30
2019-04-07T00:45:41.605Z,34.70
2019-04-07T00:48:11.096Z,27.40
2019-04-07T00:50:40.578Z,23.87
2019-04-07T00:53:09.869Z,41.83
2019-04-07T00:55:39.644Z,35.23
2019-04-07T00:58:08.882Z,34.95
2019-04-07T01:00:40.030Z,28.98
2019-04-07T01:03:09.503Z,32.33
2019-04-07T01:05:41.431Z,30.68
2019-04-07T01:08:09.759Z,31.33
2019-04-07T01:10:40.784Z,41.48
2019-04-07T01:13:10.738Z,36.33
2019-04-07T01:15:40.645Z,34.20
2019-04-07T01:18:10.056Z,39.83
2019-04-07T01:20:39.601Z,36.40
2019-04-07T01:23:08.865Z,37.65
2019-04-07T01:25:38.056Z,42.88
2019-04-07T01:28:07.233Z,38.15
2019-04-07T01:30:37.075Z,40.78
2019-04-07T01:33:06.439Z,50.25
2019-04-07T01:35:45.086Z,38.15
2019-04-07T01:38:07.254Z,43.58
2019-04-07T01:40:36.674Z,46.28
2019-04-07T01:43:33.995Z,51.33
2019-04-07T01:46:24.224Z,48.83
2019-04-07T01:49:15.099Z,49.63
2019-04-07T01:51:53.251Z,50.73
2019-04-07T01:54:42.052Z,57.20
2019-04-07T01:57:30.240Z,46.60
2019-04-07T02:00:06.212Z,50.20
2019-04-07T02:03:07.517Z,53.20
2019-04-07T02:06:08.019Z,48.35
2019-04-07T02:09:00.927Z,54.30
2019-04-07T02:11:48.003Z,43.08
2019-04-07T02:14:22.570Z,50.12
2019-04-07T02:17:08.388Z,53.60
2019-04-07T02:20:00.269Z,52.88
2019-04-07T02:22:47.479Z,39.53
2019-04-07T02:25:48.071Z,45.43
2019-04-07T02:28:51.649Z,43.13
2019-04-07T02:31:38.430Z,50.95
2019-04-07T02:34:15.618Z,33.38
2019-04-07T02:36:56.032Z,37.85
2019-04-07T02:39:37.173Z,42.17
2019-04-07T02:42:30.325Z,34.60
2019-04-07T02:45:10.970Z,44.42
2019-04-07T02:48:01.214Z,34.20
2019-04-07T02:50:55.397Z,38.42
2019-04-07T02:53:37.075Z,32.38
2019-04-07T02:56:29.319Z,37.95
2019-04-07T02:59:16.286Z,40.20
2019-04-07T03:02:12.046Z,40.15
2019-04-07T03:04:57.118Z,38.58
2019-04-07T03:07:47.231Z,36.30
2019-04-07T03:10:29.100Z,41.25
2019-04-07T03:13:17.360Z,45.58
2019-04-07T03:16:09.451Z,48.65
2019-04-07T03:18:47.178Z,38.60
2019-04-07T03:21:36.202Z,42.98
2019-04-07T03:24:17.005Z,40.83
2019-04-07T03:27:11.119Z,37.93
2019-04-07T03:29:59.083Z,42.55
2019-04-07T03:32:42.859Z,41.65
2019-04-07T03:35:13.168Z,47.20
2019-04-07T03:38:18.781Z,46.88
2019-04-07T03:41:16.243Z,42.60
2019-04-07T03:44:10.472Z,43.58
2019-04-07T03:47:07.675Z,53.25
2019-04-07T03:49:47.728Z,51.08
2019-04-07T03:52:25.017Z,49.08
2019-04-07T03:55:13.243Z,38.98
2019-04-07T03:58:01.654Z,37.63
2019-04-07T04:01:17.983Z,43.00
2019-04-07T04:03:59.439Z,47.17
2019-04-07T04:06:47.621Z,40.35
2019-04-07T04:09:26.365Z,32.55
2019-04-07T04:12:01.290Z,36.00
2019-04-07T04:14:37.660Z,39.70
2019-04-07T04:17:08.049Z,35.98
2019-04-07T04:19:37.712Z,39.95
2019-04-07T04:22:07.380Z,40.30
2019-04-07T04:24:36.873Z,43.28
2019-04-07T04:27:06.744Z,38.78
2019-04-07T04:29:35.963Z,38.80
2019-04-07T04:32:05.818Z,43.25
2019-04-07T04:34:35.192Z,36.63
2019-04-07T04:37:04.406Z,37.55
2019-04-07T04:39:33.568Z,36.58
2019-04-07T04:42:02.724Z,37.83
2019-04-07T04:44:31.889Z,32.83
2019-04-07T04:47:01.592Z,45.88
2019-04-07T04:49:33.225Z,41.35
2019-04-07T04:52:03.079Z,37.98
2019-04-07T04:54:33.355Z,46.98
2019-04-07T04:57:06.151Z,33.78
2019-04-07T04:59:33.516Z,44.83
2019-04-07T05:02:03.379Z,54.48
2019-04-07T05:04:32.778Z,61.20
2019-04-07T05:07:02.010Z,55.25
2019-04-07T05:09:41.142Z,52.05
2019-04-07T05:12:04.797Z,55.52
2019-04-07T05:14:33.348Z,56.53
2019-04-07T05:17:02.545Z,46.70
2019-04-07T05:19:32.299Z,61.70
2019-04-07T05:22:02.431Z,55.65
2019-04-07T05:24:32.248Z,55.83
2019-04-07T05:27:01.962Z,54.80
2019-04-07T05:29:31.270Z,41.15
2019-04-07T05:32:01.416Z,49.40
2019-04-07T05:34:31.141Z,48.35
2019-04-07T05:37:01.206Z,53.13
2019-04-07T05:39:30.907Z,49.05
2019-04-07T05:42:00.414Z,48.80
2019-04-07T05:44:29.632Z,52.75
2019-04-07T05:46:58.819Z,52.13
2019-04-07T05:49:28.226Z,56.55
2019-04-07T05:52:01.383Z,50.35
2019-04-07T05:54:28.647Z,43.40
2019-04-07T05:57:01.191Z,41.08
2019-04-07T05:59:28.896Z,51.37
2019-04-07T06:02:01.326Z,38.58
2019-04-07T06:04:29.225Z,42.23
2019-04-07T06:06:59.081Z,48.48
2019-04-07T06:09:29.545Z,42.53
2019-04-07T06:11:58.956Z,68.57
2019-04-07T06:14:28.102Z,95.87
2019-04-07T06:16:57.285Z,39.18
2019-04-07T06:19:26.523Z,44.65
2019-04-07T06:22:00.057Z,40.52
2019-04-07T06:24:31.648Z,41.83
2019-04-07T06:27:00.846Z,41.28
2019-04-07T06:29:30.286Z,31.42
2019-04-07T06:32:02.407Z,27.87
2019-04-07T06:34:30.568Z,34.45
2019-04-07T06:36:59.888Z,36.50
2019-04-07T06:39:31.889Z,33.48
2019-04-07T06:42:01.452Z,32.20
2019-04-07T06:44:31.383Z,36.38
2019-04-07T06:47:17.984Z,35.08
2019-04-07T06:50:10.013Z,30.85
2019-04-07T06:53:02.224Z,34.70
2019-04-07T06:55:49.711Z,35.90
2019-04-07T06:58:43.827Z,26.02
2019-04-07T07:01:47.676Z,33.20
2019-04-07T07:04:43.785Z,32.35
2019-04-07T07:07:32.635Z,32.98
2019-04-07T07:10:09.521Z,31.20
2019-04-07T07:13:11.560Z,32.35
2019-04-07T07:15:49.405Z,39.80
2019-04-07T07:18:47.113Z,40.15
2019-04-07T07:21:36.338Z,41.23
2019-04-07T07:24:04.968Z,38.80
2019-04-07T07:26:35.457Z,42.15
2019-04-07T07:29:06.409Z,46.35
2019-04-07T07:31:35.793Z,37.45
2019-04-07T07:34:05.161Z,40.28
2019-04-07T07:36:34.964Z,39.67
2019-04-07T07:39:10.208Z,41.92
2019-04-07T07:41:37.803Z,44.45
2019-04-07T07:44:08.493Z,41.10
2019-04-07T07:46:38.593Z,41.20
2019-04-07T07:49:07.751Z,35.95
2019-04-07T07:51:38.646Z,32.50
2019-04-07T07:54:07.809Z,32.08
2019-04-07T07:56:37.870Z,38.67
2019-04-07T07:59:08.697Z,34.60
2019-04-07T08:01:38.218Z,31.02
2019-04-07T08:04:07.493Z,34.43
2019-04-07T08:06:38.529Z,35.80
2019-04-07T08:09:13.701Z,32.63
2019-04-07T08:11:39.985Z,26.47
2019-04-07T08:14:09.977Z,26.37
2019-04-07T08:16:39.994Z,33.70
2019-04-07T08:19:10.262Z,26.65
2019-04-07T08:21:40.406Z,26.03
2019-04-07T08:24:11.321Z,25.93
2019-04-07T08:26:41.222Z,29.10
2019-04-07T08:29:12.570Z,26.33
2019-04-07T08:31:41.521Z,28.73
2019-04-07T08:34:10.977Z,27.10
2019-04-07T08:36:43.470Z,28.67
2019-04-07T08:39:21.496Z,28.33
2019-04-07T08:41:43.447Z,25.50
2019-04-07T08:44:12.830Z,30.53
2019-04-07T08:46:43.280Z,27.77
2019-04-07T08:49:12.905Z,25.77
2019-04-07T08:51:42.737Z,31.20
2019-04-07T08:54:15.732Z,32.80
2019-04-07T08:56:43.639Z,32.90
2019-04-07T08:59:16.701Z,20.33
2019-04-07T09:01:44.594Z,26.83
2019-04-07T09:04:16.526Z,26.87
2019-04-07T09:06:45.309Z,25.43
2019-04-07T09:09:14.475Z,32.00
2019-04-07T09:11:43.763Z,21.07
2019-04-07T09:14:15.094Z,24.50
2019-04-07T09:17:08.260Z,20.30
2019-04-07T09:19:45.786Z,17.27
2019-04-07T09:22:23.125Z,23.70
2019-04-07T09:25:17.268Z,18.80
2019-04-07T09:28:08.735Z,24.43
2019-04-07T09:31:06.351Z,22.77
2019-04-07T09:34:07.058Z,16.07
2019-04-07T09:36:55.685Z,23.73
2019-04-07T09:40:02.922Z,16.17
2019-04-07T09:42:50.793Z,19.40
2019-04-07T09:45:42.582Z,18.90
2019-04-07T09:48:30.794Z,20.60
2019-04-07T09:51:16.469Z,16.83
2019-04-07T09:54:19.205Z,21.03
2019-04-07T09:57:19.036Z,27.93
2019-04-07T10:00:09.977Z,20.57
2019-04-07T10:03:13.656Z,18.43
2019-04-07T10:05:59.364Z,21.90
2019-04-07T10:08:35.244Z,16.97
2019-04-07T10:11:27.429Z,19.20
2019-04-07T10:14:19.591Z,21.67
2019-04-07T10:17:08.751Z,19.20
2019-04-07T10:19:56.168Z,17.30
2019-04-07T10:22:40.369Z,18.07
2019-04-07T10:25:21.110Z,18.50
2019-04-07T10:28:11.026Z,16.13
2019-04-07T10:30:58.592Z,19.40
2019-04-07T10:33:35.761Z,13.93
2019-04-07T10:36:18.347Z,17.70
2019-04-07T10:39:07.204Z,19.17
2019-04-07T10:42:11.376Z,18.93
2019-04-07T10:45:09.153Z,17.13
2019-04-07T10:47:44.810Z,19.80
2019-04-07T10:50:24.628Z,17.67
2019-04-07T10:53:19.470Z,14.93
2019-04-07T10:56:07.391Z,20.30
2019-04-07T10:58:59.343Z,20.70
2019-04-07T11:01:38.806Z,16.70
2019-04-07T11:04:25.806Z,18.30
2019-04-07T11:07:06.448Z,17.50
2019-04-07T11:09:58.935Z,18.67
2019-04-07T11:12:50.277Z,19.93
2019-04-07T11:15:36.985Z,16.80
2019-04-07T11:18:14.492Z,17.63
2019-04-07T11:21:04.671Z,16.43
2019-04-07T11:23:45.246Z,18.90
2019-04-07T11:26:40.307Z,22.17
2019-04-07T11:29:29.519Z,13.90
2019-04-07T11:32:07.669Z,16.27
2019-04-07T11:34:47.457Z,17.67
2019-04-07T11:37:40.767Z,17.97
2019-04-07T11:40:42.602Z,16.27
2019-04-07T11:43:28.406Z,14.80
2019-04-07T11:46:20.454Z,19.70
2019-04-07T11:49:13.468Z,15.20
2019-04-07T11:51:49.960Z,16.20
2019-04-07T11:54:26.082Z,17.50
2019-04-07T11:57:15.705Z,18.27
2019-04-07T12:00:03.956Z,16.10
2019-04-07T12:02:45.481Z,15.63
2019-04-07T12:05:42.949Z,17.77
2019-04-07T12:08:35.162Z,17.23
2019-04-07T12:11:18.690Z,15.40
2019-04-07T12:14:17.810Z,16.90
2019-04-07T12:17:13.811Z,16.63
2019-04-07T12:20:04.258Z,15.33
2019-04-07T12:22:55.028Z,11.00
2019-04-07T12:25:56.882Z,17.57
2019-04-07T12:28:56.135Z,14.87
2019-04-07T12:31:45.130Z,17.07
2019-04-07T12:34:26.440Z,13.50
2019-04-07T12:37:11.661Z,12.73
2019-04-07T12:40:12.943Z,15.60
2019-04-07T12:42:59.554Z,11.00
2019-04-07T12:45:58.090Z,13.10
2019-04-07T12:48:41.054Z,11.40
2019-04-07T12:51:29.314Z,10.70
2019-04-07T12:54:07.538Z,10.30
2019-04-07T12:56:49.186Z,10.80
2019-04-07T12:59:39.210Z,10.53
2019-04-07T13:02:28.420Z,13.20
2019-04-07T13:05:24.352Z,13.10
2019-04-07T13:08:12.697Z,11.73
2019-04-07T13:10:54.563Z,11.90
2019-04-07T13:13:45.749Z,12.30
2019-04-07T13:16:25.384Z,11.27
2019-04-07T13:19:17.764Z,9.40
2019-04-07T13:22:00.805Z,12.17
2019-04-07T13:24:48.679Z,9.77
2019-04-07T13:27:29.695Z,8.17
2019-04-07T13:30:20.267Z,7.27
2019-04-07T13:33:08.109Z,9.90
2019-04-07T13:35:55.059Z,9.10
2019-04-07T13:38:47.413Z,9.90
2019-04-07T13:41:44.912Z,7.87
2019-04-07T13:44:36.727Z,10.03
2019-04-07T13:47:16.638Z,7.53
2019-04-07T13:50:07.642Z,7.53
2019-04-07T13:53:02.905Z,7.23
2019-04-07T13:56:14.729Z,7.27
2019-04-07T13:58:50.855Z,7.73
2019-04-07T14:01:39.715Z,7.77
2019-04-07T14:04:27.873Z,7.13
2019-04-07T14:07:11.730Z,11.73
2019-04-07T14:09:50.763Z,7.13
2019-04-07T14:12:33.724Z,8.93
2019-04-07T14:15:30.161Z,9.83
2019-04-07T14:18:36.703Z,8.60
2019-04-07T14:21:24.972Z,11.93
2019-04-07T14:24:12.118Z,11.37
2019-04-07T14:27:08.598Z,12.20
2019-04-07T14:30:00.348Z,12.63
2019-04-07T14:32:49.790Z,10.73
2019-04-07T14:35:37.485Z,12.40
2019-04-07T14:38:35.562Z,10.53
2019-04-07T14:41:14.811Z,10.93
2019-04-07T14:44:02.060Z,12.93
2019-04-07T14:46:54.054Z,9.50
2019-04-07T14:49:42.381Z,10.27
2019-04-07T14:52:25.268Z,9.40
2019-04-07T14:55:23.762Z,9.40
2019-04-07T14:58:13.106Z,9.37
2019-04-07T15:01:02.554Z,12.20
2019-04-07T15:03:29.210Z,11.27
2019-04-07T15:05:59.617Z,9.70
2019-04-07T15:08:37.264Z,10.80
2019-04-07T15:11:25.279Z,9.73
2019-04-07T15:13:58.318Z,11.73
2019-04-07T15:16:28.556Z,10.87
2019-04-07T15:18:58.704Z,11.17
2019-04-07T15:21:27.977Z,9.57
2019-04-07T15:23:59.274Z,7.80
2019-04-07T15:26:28.253Z,12.33
2019-04-07T15:28:58.890Z,8.97
2019-04-07T15:31:28.758Z,9.63
2019-04-07T15:33:57.902Z,8.37
2019-04-07T15:36:27.600Z,9.57
2019-04-07T15:38:58.136Z,9.30
2019-04-07T15:41:28.039Z,13.37
2019-04-07T15:43:57.366Z,12.43
2019-04-07T15:46:26.886Z,7.03
2019-04-07T15:48:57.018Z,11.70
2019-04-07T15:51:26.383Z,9.47
2019-04-07T15:53:56.485Z,12.07
2019-04-07T15:56:26.034Z,7.90
2019-04-07T15:58:58.103Z,10.77
2019-04-07T16:01:26.909Z,8.00
2019-04-07T16:03:57.030Z,10.13
2019-04-07T16:06:26.422Z,9.50
2019-04-07T16:08:58.829Z,10.53
2019-04-07T16:11:29.356Z,10.83
2019-04-07T16:13:58.344Z,10.40
2019-04-07T16:16:29.315Z,10.43
2019-04-07T16:18:59.351Z,9.63
2019-04-07T16:21:29.781Z,9.40
2019-04-07T16:23:59.478Z,8.23
2019-04-07T16:26:31.202Z,10.27
2019-04-07T16:28:59.577Z,9.37
2019-04-07T16:31:28.771Z,10.63
2019-04-07T16:34:00.284Z,9.37
2019-04-07T16:36:30.252Z,9.23
2019-04-07T16:39:01.898Z,8.00
2019-04-07T16:41:30.464Z,9.13
2019-04-07T16:44:03.480Z,7.03
2019-04-07T16:46:31.533Z,8.77
2019-04-07T16:49:01.727Z,7.83
2019-04-07T16:51:33.643Z,8.80
2019-04-07T16:54:02.759Z,8.20
2019-04-07T16:56:32.308Z,9.83
2019-04-07T16:59:02.652Z,6.43
2019-04-07T17:01:32.231Z,9.60
2019-04-07T17:04:01.422Z,6.30
2019-04-07T17:06:34.719Z,9.40
2019-04-07T17:09:02.449Z,7.10
2019-04-07T17:11:32.326Z,8.67
2019-04-07T17:14:02.915Z,8.87
2019-04-07T17:16:33.409Z,12.20
2019-04-07T17:19:04.152Z,12.80
2019-04-07T17:21:33.317Z,8.07
2019-04-07T17:24:04.040Z,7.60
2019-04-07T17:26:35.380Z,9.73
2019-04-07T17:29:04.979Z,11.20
2019-04-07T17:31:34.798Z,9.17
2019-04-07T17:34:07.327Z,9.53
2019-04-07T17:36:35.445Z,9.77
2019-04-07T17:39:25.993Z,9.97
2019-04-07T17:41:57.332Z,14.47
2019-04-07T17:44:48.344Z,13.50
2019-04-07T17:47:31.445Z,11.00
2019-04-07T17:50:17.891Z,14.57
2019-04-07T17:53:14.159Z,10.27
2019-04-07T17:55:59.826Z,14.00
2019-04-07T17:58:57.345Z,12.17
2019-04-07T18:01:33.518Z,9.97
2019-04-07T18:04:27.934Z,11.80
2019-04-07T18:07:15.190Z,16.03
2019-04-07T18:10:15.489Z,14.07
2019-04-07T18:13:10.776Z,17.03
2019-04-07T18:15:52.035Z,12.50
2019-04-07T18:18:51.725Z,15.83
2019-04-07T18:21:39.773Z,12.57
2019-04-07T18:24:15.160Z,18.77
2019-04-07T18:26:56.996Z,12.37
2019-04-07T18:29:34.292Z,13.87
2019-04-07T18:32:31.918Z,11.63
2019-04-07T18:35:23.765Z,12.67
2019-04-07T18:38:10.254Z,13.90
2019-04-07T18:41:00.410Z,11.17
2019-04-07T18:44:02.347Z,13.83
2019-04-07T18:46:47.663Z,16.80
2019-04-07T18:49:32.958Z,13.63
2019-04-07T18:52:37.856Z,16.63
2019-04-07T18:55:27.294Z,12.97
2019-04-07T18:58:15.408Z,15.87
2019-04-07T19:01:15.787Z,14.10
2019-04-07T19:04:01.184Z,11.80
2019-04-07T19:06:41.159Z,11.17
2019-04-07T19:09:32.330Z,11.60
2019-04-07T19:12:28.866Z,12.13
2019-04-07T19:15:17.940Z,12.30
2019-04-07T19:18:04.632Z,10.23
2019-04-07T19:20:50.108Z,14.53
2019-04-07T19:23:44.099Z,12.00
2019-04-07T19:26:33.516Z,14.27
2019-04-07T19:29:25.132Z,13.25
2019-04-07T19:32:23.487Z,12.50
2019-04-07T19:35:15.154Z,17.52
2019-04-07T19:37:53.933Z,11.20
2019-04-07T19:40:49.233Z,12.33
2019-04-07T19:43:37.131Z,10.23
2019-04-07T19:46:28.197Z,6.37
2019-04-07T19:49:17.842Z,8.43
2019-04-07T19:51:51.694Z,11.65
2019-04-07T19:54:51.462Z,10.67
2019-04-07T19:57:38.560Z,10.50
2019-04-07T20:00:28.911Z,9.10
2019-04-07T20:03:17.929Z,14.83
2019-04-07T20:06:09.335Z,6.37
2019-04-07T20:09:09.867Z,7.87
2019-04-07T20:11:52.796Z,8.70
2019-04-07T20:15:01.466Z,7.85
2019-04-07T20:17:50.565Z,10.03
2019-04-07T20:20:35.810Z,12.57
2019-04-07T20:23:32.179Z,9.90
2019-04-07T20:26:35.097Z,9.58
2019-04-07T20:29:32.486Z,10.13
2019-04-07T20:32:18.617Z,6.97
2019-04-07T20:35:10.947Z,7.90
2019-04-07T20:38:06.288Z,6.20
2019-04-07T20:41:04.115Z,10.30
2019-04-07T20:44:01.560Z,7.50
2019-04-07T20:46:44.819Z,7.10
2019-04-07T20:49:35.679Z,9.20
2019-04-07T20:52:42.758Z,5.93
2019-04-07T20:55:24.821Z,10.17
2019-04-07T20:58:23.804Z,4.63
2019-04-07T21:01:10.993Z,6.90
2019-04-07T21:04:02.321Z,7.63
2019-04-07T21:06:50.789Z,5.70
2019-04-07T21:09:33.368Z,5.37
2019-04-07T21:12:32.416Z,6.43
2019-04-07T21:15:31.037Z,4.40
2019-04-07T21:18:14.730Z,3.70
2019-04-07T21:21:15.177Z,9.37
2019-04-07T21:24:18.199Z,4.30
2019-04-07T21:27:03.806Z,9.10
2019-04-07T21:29:41.413Z,3.70
2019-04-07T21:32:19.039Z,3.95
2019-04-07T21:35:13.215Z,4.83
2019-04-07T21:38:21.559Z,3.70
2019-04-07T21:41:01.940Z,7.43
2019-04-07T21:43:38.368Z,5.85
2019-04-07T21:46:32.614Z,8.98
2019-04-07T21:49:32.784Z,6.22
2019-04-07T21:52:08.222Z,11.33
2019-04-07T21:54:59.837Z,6.00
2019-04-07T21:57:43.783Z,7.08
2019-04-07T22:03:27.165Z,3.65
2019-04-07T22:06:18.344Z,5.92
2019-04-07T22:08:52.571Z,6.20
2019-04-07T22:11:24.706Z,6.10
2019-04-07T22:13:53.363Z,5.23
2019-04-07T22:16:24.220Z,4.35
2019-04-07T22:18:53.595Z,4.90
2019-04-07T22:21:24.060Z,4.33
2019-04-07T22:23:54.187Z,4.35
2019-04-07T22:26:23.423Z,6.83
2019-04-07T22:28:52.561Z,4.05
2019-04-07T22:31:27.004Z,4.00
2019-04-07T22:33:58.384Z,3.43
2019-04-07T22:36:27.331Z,5.10
2019-04-07T22:38:59.745Z,5.13
2019-04-07T22:41:28.166Z,4.27
2019-04-07T22:43:57.498Z,4.10
2019-04-07T22:46:27.393Z,5.40
2019-04-07T22:48:58.456Z,7.62
2019-04-07T22:51:28.549Z,11.03
2019-04-07T22:53:58.703Z,4.22
2019-04-07T22:56:28.400Z,3.90
2019-04-07T22:58:57.596Z,7.77
2019-04-07T23:01:27.198Z,6.47
2019-04-07T23:03:56.461Z,4.72
2019-04-07T23:06:26.589Z,5.20
2019-04-07T23:08:55.821Z,5.92
2019-04-07T23:11:25.771Z,5.37
2019-04-07T23:13:55.490Z,5.20
2019-04-07T23:16:24.653Z,5.83
2019-04-07T23:18:54.169Z,4.53
2019-04-07T23:21:23.768Z,3.95
2019-04-07T23:23:53.879Z,4.95
2019-04-07T23:26:23.024Z,5.62
2019-04-07T23:28:52.201Z,5.42
2019-04-07T23:31:21.538Z,4.55
2019-04-07T23:33:50.713Z,5.10
2019-04-07T23:36:20.091Z,3.17
2019-04-07T23:38:49.638Z,4.42
2019-04-07T23:41:18.874Z,4.65
2019-04-07T23:43:48.326Z,4.58
2019-04-07T23:46:23.183Z,5.05
2019-04-07T23:48:49.628Z,4.60
2019-04-07T23:51:19.001Z,4.60
2019-04-07T23:54:14.420Z,4.37
2019-04-07T23:56:45.808Z,4.60
2019-04-07T23:59:15.178Z,3.42
